createdAt,value
2019-05-14T02:33:59.089Z,1029.24
2019-05-14T02:46:59.207Z,1029.16
2019-05-14T02:47:59.962Z,1029.13
2019-05-14T02:52:59.917Z,1029.10
2019-05-14T02:53:59.127Z,1029.16
2019-05-14T02:56:59.640Z,1029.11
2019-05-14T03:10:59.952Z,1029.17
2019-05-14T03:11:59.524Z,1029.22
2019-05-14T03:12:59.054Z,1029.21
2019-05-14T03:14:58.850Z,1029.18
2019-05-14T03:15:59.488Z,1029.20
2019-05-14T03:16:59.450Z,1029.21
2019-05-14T03:17:59.663Z,1029.22
2019-05-14T03:18:59.508Z,1029.16
2019-05-14T03:19:59.872Z,1029.18
2019-05-14T03:21:00.444Z,1029.20
2019-05-14T03:21:59.968Z,1029.22
2019-05-14T03:24:21.177Z,1029.21
2019-05-14T03:25:21.166Z,1029.17
2019-05-14T03:26:21.154Z,1029.22
2019-05-14T03:27:21.148Z,1029.19
2019-05-14T03:28:21.142Z,1029.17
2019-05-14T03:29:25.552Z,1029.19
2019-05-14T03:30:22.817Z,1029.22
2019-05-14T03:31:22.750Z,1029.20
2019-05-14T03:32:22.989Z,1029.22
2019-05-14T03:33:22.484Z,1029.24
2019-05-14T03:34:22.513Z,1029.24
2019-05-14T03:35:23.476Z,1029.20
2019-05-14T03:36:26.246Z,1029.24
2019-05-14T03:37:24.104Z,1029.25
2019-05-14T03:38:21.025Z,1029.26
2019-05-14T03:39:21.013Z,1029.19
2019-05-14T03:40:20.996Z,1029.22
2019-05-14T03:41:21.003Z,1029.16
2019-05-14T03:42:20.980Z,1029.23
2019-05-14T03:43:20.966Z,1029.19
2019-05-14T03:44:20.958Z,1029.20
2019-05-14T03:45:20.946Z,1029.23
2019-05-14T03:46:39.822Z,1029.19
2019-05-14T03:47:21.994Z,1029.22
2019-05-14T03:48:20.916Z,1029.21
2019-05-14T03:49:20.893Z,1029.22
2019-05-14T03:50:20.888Z,1029.23
2019-05-14T03:51:20.878Z,1029.24
2019-05-14T03:52:20.871Z,1029.19
2019-05-14T03:53:20.854Z,1029.25
2019-05-14T03:54:20.840Z,1029.21
2019-05-14T03:55:20.837Z,1029.29
2019-05-14T03:56:20.845Z,1029.29
2019-05-14T03:57:20.807Z,1029.26
2019-05-14T03:58:21.508Z,1029.29
2019-05-14T03:59:20.920Z,1029.29
2019-05-14T04:00:20.781Z,1029.28
2019-05-14T04:01:20.773Z,1029.26
2019-05-14T04:02:20.758Z,1029.28
2019-05-14T04:03:20.745Z,1029.25
2019-05-14T04:04:20.740Z,1029.23
2019-05-14T04:05:22.602Z,1029.26
2019-05-14T04:06:20.708Z,1029.21
2019-05-14T04:07:20.692Z,1029.25
2019-05-14T04:08:21.742Z,1029.18
2019-05-14T04:09:20.671Z,1029.24
2019-05-14T04:10:20.658Z,1029.20
2019-05-14T04:11:20.652Z,1029.20
2019-05-14T04:12:20.639Z,1029.22
2019-05-14T04:13:20.624Z,1029.22
2019-05-14T04:14:20.622Z,1029.23
2019-05-14T04:15:20.603Z,1029.18
2019-05-14T04:16:20.589Z,1029.07
2019-05-14T04:17:32.412Z,1029.15
2019-05-14T04:18:45.050Z,1029.14
2019-05-14T04:19:45.034Z,1029.17
2019-05-14T04:20:45.024Z,1029.09
2019-05-14T04:21:45.013Z,1029.05
2019-05-14T04:22:45.000Z,1029.15
2019-05-14T04:23:44.991Z,1029.16
2019-05-14T04:24:44.982Z,1029.12
2019-05-14T04:25:44.968Z,1029.17
2019-05-14T04:27:01.636Z,1029.20
2019-05-14T04:28:09.918Z,1029.11
2019-05-14T04:29:10.223Z,1029.13
2019-05-14T04:30:09.598Z,1029.09
2019-05-14T04:31:09.926Z,1029.10
2019-05-14T04:32:09.665Z,1029.07
2019-05-14T04:33:10.580Z,1029.10
2019-05-14T04:34:10.768Z,1029.15
2019-05-14T04:35:09.692Z,1029.16
2019-05-14T04:36:10.112Z,1029.17
2019-05-14T04:37:09.798Z,1029.19
2019-05-14T04:38:09.700Z,1029.26
2019-05-14T04:39:09.729Z,1029.26
2019-05-14T04:40:10.307Z,1029.28
2019-05-14T04:41:10.402Z,1029.31
2019-05-14T04:42:09.918Z,1029.31
2019-05-14T04:43:10.139Z,1029.30
2019-05-14T04:44:09.924Z,1029.36
2019-05-14T04:45:10.885Z,1029.34
2019-05-14T04:46:10.343Z,1029.34
2019-05-14T04:47:25.344Z,1029.36
2019-05-14T05:08:52.277Z,1029.39
2019-05-14T05:09:52.269Z,1029.39
2019-05-14T05:10:52.270Z,1029.37
2019-05-14T05:11:52.267Z,1029.34
2019-05-14T05:12:52.267Z,1029.30
2019-05-14T05:13:52.282Z,1029.33
2019-05-14T05:14:52.214Z,1029.34
2019-05-14T05:15:52.223Z,1029.38
2019-05-14T05:16:52.216Z,1029.37
2019-05-14T05:17:53.205Z,1029.35
2019-05-14T05:18:52.158Z,1029.33
2019-05-14T05:19:52.165Z,1029.35
2019-05-14T05:20:52.137Z,1029.28
2019-05-14T05:21:52.124Z,1029.31
2019-05-14T05:22:52.112Z,1029.29
2019-05-14T05:23:52.100Z,1029.29
2019-05-14T05:24:52.092Z,1029.30
2019-05-14T05:25:52.079Z,1029.31
2019-05-14T05:26:52.070Z,1029.25
2019-05-14T05:27:52.060Z,1029.37
2019-05-14T05:29:03.701Z,1029.32
2019-05-14T05:29:53.053Z,1029.27
2019-05-14T05:30:52.020Z,1029.27
2019-05-14T05:31:52.010Z,1029.31
2019-05-14T05:32:51.997Z,1029.33
2019-05-14T05:33:51.992Z,1029.34
2019-05-14T05:34:51.977Z,1029.34
2019-05-14T05:35:51.972Z,1029.34
2019-05-14T05:36:51.953Z,1029.37
2019-05-14T05:37:51.941Z,1029.32
2019-05-14T05:39:51.919Z,1029.38
2019-05-14T05:40:56.673Z,1029.43
2019-05-14T05:41:51.896Z,1029.35
2019-05-14T05:42:51.886Z,1029.41
2019-05-14T05:43:51.875Z,1029.48
2019-05-14T05:44:51.866Z,1029.43
2019-05-14T05:45:51.851Z,1029.35
2019-05-14T05:46:51.842Z,1029.38
2019-05-14T05:47:57.422Z,1029.42
2019-05-14T05:49:18.524Z,1029.45
2019-05-14T05:50:16.309Z,1029.45
2019-05-14T05:51:18.705Z,1029.40
2019-05-14T05:52:16.264Z,1029.43
2019-05-14T05:53:16.262Z,1029.42
2019-05-14T05:54:18.504Z,1029.45
2019-05-14T05:55:16.234Z,1029.50
2019-05-14T05:56:18.451Z,1029.53
2019-05-14T05:57:18.581Z,1029.41
2019-05-14T05:58:16.194Z,1029.52
2019-05-14T05:59:18.771Z,1029.36
2019-05-14T06:00:18.809Z,1029.40
2019-05-14T06:01:16.164Z,1029.42
2019-05-14T06:02:18.395Z,1029.50
2019-05-14T06:03:16.135Z,1029.45
2019-05-14T06:04:18.178Z,1029.46
2019-05-14T06:05:18.544Z,1029.46
2019-05-14T06:06:16.102Z,1029.45
2019-05-14T06:07:18.184Z,1029.46
2019-05-14T06:08:16.086Z,1029.40
2019-05-14T06:09:18.081Z,1029.44
2019-05-14T06:10:18.566Z,1029.39
2019-05-14T06:11:16.044Z,1029.43
2019-05-14T06:12:16.037Z,1029.35
2019-05-14T06:13:18.102Z,1029.39
2019-05-14T06:14:16.009Z,1029.34
2019-05-14T06:15:16.000Z,1029.32
2019-05-14T06:16:18.401Z,1029.31
2019-05-14T06:17:15.979Z,1029.30
2019-05-14T06:18:19.538Z,1029.32
2019-05-14T06:19:18.366Z,1029.31
2019-05-14T06:20:15.944Z,1029.28
2019-05-14T06:21:18.647Z,1029.32
2019-05-14T06:22:15.921Z,1029.38
2019-05-14T06:23:15.919Z,1029.18
2019-05-14T06:24:15.901Z,1029.30
2019-05-14T06:25:15.891Z,1029.36
2019-05-14T06:26:18.789Z,1029.34
2019-05-14T06:27:17.998Z,1029.27
2019-05-14T06:28:15.856Z,1029.23
2019-05-14T06:29:15.840Z,1029.29
2019-05-14T06:30:18.265Z,1029.33
2019-05-14T06:31:15.819Z,1029.30
2019-05-14T06:32:18.430Z,1029.30
2019-05-14T06:33:15.796Z,1029.30
2019-05-14T06:34:18.466Z,1029.26
2019-05-14T06:35:15.773Z,1029.27
2019-05-14T06:36:15.762Z,1029.33
2019-05-14T06:37:15.756Z,1029.22
2019-05-14T06:38:15.739Z,1029.20
2019-05-14T06:39:18.118Z,1029.24
2019-05-14T06:40:15.716Z,1029.20
2019-05-14T06:41:15.712Z,1029.30
2019-05-14T06:42:15.697Z,1029.31
2019-05-14T06:43:15.688Z,1029.30
2019-05-14T06:44:15.677Z,1029.29
2019-05-14T06:45:18.516Z,1029.32
2019-05-14T06:46:15.649Z,1029.33
2019-05-14T06:47:15.645Z,1029.31
2019-05-14T06:48:28.153Z,1029.29
2019-05-14T06:49:40.096Z,1029.29
2019-05-14T06:50:40.088Z,1029.35
2019-05-14T06:51:40.075Z,1029.26
2019-05-14T06:52:40.062Z,1029.37
2019-05-14T06:53:40.054Z,1029.28
2019-05-14T06:54:40.041Z,1029.31
2019-05-14T06:55:40.024Z,1029.28
2019-05-14T06:56:40.012Z,1029.35
2019-05-14T06:57:40.006Z,1029.31
2019-05-14T06:58:39.990Z,1029.35
2019-05-14T06:59:39.977Z,1029.39
2019-05-14T07:00:39.967Z,1029.32
2019-05-14T07:01:39.955Z,1029.29
2019-05-14T07:02:43.580Z,1029.31
2019-05-14T07:03:39.931Z,1029.32
2019-05-14T07:04:39.921Z,1029.31
2019-05-14T07:05:39.914Z,1029.27
2019-05-14T07:06:39.899Z,1029.32
2019-05-14T07:07:40.608Z,1029.40
2019-05-14T07:08:39.880Z,1029.25
2019-05-14T07:09:39.871Z,1029.35
2019-05-14T07:10:39.854Z,1029.30
2019-05-14T07:11:39.845Z,1029.39
2019-05-14T07:12:39.840Z,1029.46
2019-05-14T07:13:39.826Z,1029.35
2019-05-14T07:14:39.826Z,1029.30
2019-05-14T07:15:39.807Z,1029.29
2019-05-14T07:16:39.795Z,1029.33
2019-05-14T07:17:39.783Z,1029.30
2019-05-14T07:18:53.428Z,1029.40
2019-05-14T07:19:40.986Z,1029.28
2019-05-14T07:20:39.752Z,1029.34
2019-05-14T07:21:39.733Z,1029.26
2019-05-14T07:22:39.737Z,1029.30
2019-05-14T07:23:39.719Z,1029.25
2019-05-14T07:24:40.614Z,1029.26
2019-05-14T07:25:39.690Z,1029.31
2019-05-14T07:26:39.678Z,1029.25
2019-05-14T07:27:39.676Z,1029.22
2019-05-14T07:28:42.437Z,1029.26
2019-05-14T07:29:39.654Z,1029.44
2019-05-14T07:30:39.838Z,1029.32
2019-05-14T07:31:39.623Z,1029.39
2019-05-14T07:32:39.818Z,1029.27
2019-05-14T07:33:39.600Z,1029.27
2019-05-14T07:34:39.591Z,1029.34
2019-05-14T07:35:40.487Z,1029.35
2019-05-14T07:36:39.573Z,1029.26
2019-05-14T07:37:39.986Z,1029.17
2019-05-14T07:38:39.563Z,1029.18
2019-05-14T07:39:39.535Z,1029.22
2019-05-14T07:40:39.522Z,1029.22
2019-05-14T07:41:39.504Z,1029.25
2019-05-14T07:42:39.528Z,1029.28
2019-05-14T07:43:39.604Z,1029.28
2019-05-14T07:44:39.473Z,1029.20
2019-05-14T07:45:39.460Z,1029.20
2019-05-14T07:46:39.478Z,1029.18
2019-05-14T07:47:39.444Z,1029.22
2019-05-14T07:48:39.546Z,1029.22
2019-05-14T07:49:39.417Z,1029.22
2019-05-14T07:50:39.907Z,1029.21
2019-05-14T07:51:39.392Z,1029.18
2019-05-14T07:52:45.452Z,1029.20
2019-05-14T07:53:42.475Z,1029.27
2019-05-14T07:54:39.374Z,1029.25
2019-05-14T07:55:39.348Z,1029.26
2019-05-14T07:56:39.387Z,1029.21
2019-05-14T07:57:39.565Z,1029.18
2019-05-14T07:58:39.319Z,1029.13
2019-05-14T07:59:39.299Z,1029.15
2019-05-14T08:00:40.279Z,1029.23
2019-05-14T08:01:39.279Z,1029.18
2019-05-14T08:02:39.283Z,1029.19
2019-05-14T08:03:39.255Z,1029.20
2019-05-14T08:04:39.295Z,1029.19
2019-05-14T08:05:39.263Z,1029.20
2019-05-14T08:06:39.549Z,1029.14
2019-05-14T08:07:39.209Z,1029.20
2019-05-14T08:08:39.241Z,1029.19
2019-05-14T08:09:39.214Z,1029.19
2019-05-14T08:10:39.336Z,1029.20
2019-05-14T08:11:39.163Z,1029.19
2019-05-14T08:12:39.380Z,1029.19
2019-05-14T08:13:40.181Z,1029.08
2019-05-14T08:14:54.822Z,1029.10
2019-05-14T08:15:40.142Z,1029.03
2019-05-14T08:16:39.139Z,1028.99
2019-05-14T08:17:39.103Z,1029.09
2019-05-14T08:18:39.749Z,1029.00
2019-05-14T08:19:39.078Z,1029.02
2019-05-14T08:20:39.072Z,1029.01
2019-05-14T08:21:39.051Z,1029.00
2019-05-14T08:22:39.040Z,1029.11
2019-05-14T08:23:39.418Z,1029.00
2019-05-14T08:24:39.017Z,1028.95
2019-05-14T08:25:39.227Z,1029.04
2019-05-14T08:26:42.973Z,1028.98
2019-05-14T08:27:39.099Z,1028.99
2019-05-14T08:28:38.972Z,1028.93
2019-05-14T08:29:40.060Z,1028.89
2019-05-14T08:30:39.136Z,1028.84
2019-05-14T08:31:38.936Z,1028.90
2019-05-14T08:32:39.205Z,1028.96
2019-05-14T08:33:39.645Z,1028.92
2019-05-14T08:34:39.136Z,1028.87
2019-05-14T08:35:39.528Z,1028.89
2019-05-14T08:36:38.895Z,1028.97
2019-05-14T08:37:38.978Z,1028.89
2019-05-14T08:38:38.864Z,1028.86
2019-05-14T08:39:39.391Z,1028.88
2019-05-14T08:40:38.845Z,1028.87
2019-05-14T08:41:38.824Z,1028.83
2019-05-14T08:42:38.810Z,1028.87
2019-05-14T08:43:39.718Z,1028.88
2019-05-14T08:44:39.173Z,1028.88
2019-05-14T08:45:38.990Z,1028.84
2019-05-14T08:46:39.032Z,1028.96
2019-05-14T08:47:39.231Z,1028.79
2019-05-14T08:48:39.122Z,1028.79
2019-05-14T08:49:45.828Z,1028.76
2019-05-14T08:51:03.203Z,1028.94
2019-05-14T08:52:03.193Z,1028.94
2019-05-14T08:53:03.181Z,1028.74
2019-05-14T08:54:03.171Z,1028.90
2019-05-14T08:55:11.055Z,1028.95
2019-05-14T08:56:04.172Z,1028.66
2019-05-14T08:57:03.200Z,1028.67
2019-05-14T08:58:03.225Z,1028.66
2019-05-14T08:59:03.114Z,1028.66
2019-05-14T09:00:03.115Z,1028.56
2019-05-14T09:01:03.094Z,1028.63
2019-05-14T09:02:06.547Z,1028.67
2019-05-14T09:03:28.754Z,1028.59
2019-05-14T09:04:30.402Z,1028.80
2019-05-14T09:05:28.720Z,1028.76
2019-05-14T09:06:28.954Z,1028.64
2019-05-14T09:07:28.924Z,1028.54
2019-05-14T09:08:28.437Z,1028.57
2019-05-14T09:09:28.894Z,1028.57
2019-05-14T09:10:28.560Z,1028.48
2019-05-14T09:11:34.416Z,1028.51
2019-05-14T09:12:28.467Z,1028.52
2019-05-14T09:13:28.995Z,1028.45
2019-05-14T09:14:28.180Z,1028.61
2019-05-14T09:15:28.863Z,1028.50
2019-05-14T09:16:41.891Z,1028.46
2019-05-14T09:17:51.869Z,1028.55
2019-05-14T09:18:51.857Z,1028.56
2019-05-14T09:20:02.447Z,1028.75
2019-05-14T09:21:16.321Z,1028.54
2019-05-14T09:22:18.457Z,1028.77
2019-05-14T09:23:18.735Z,1028.45
2019-05-14T09:24:18.195Z,1028.48
2019-05-14T09:25:18.728Z,1028.50
2019-05-14T09:26:18.122Z,1028.50
2019-05-14T09:27:19.021Z,1028.46
2019-05-14T09:28:18.836Z,1028.43
2019-05-14T09:29:22.458Z,1028.58
2019-05-14T09:30:18.550Z,1028.71
2019-05-14T09:31:19.082Z,1028.50
2019-05-14T09:32:18.959Z,1028.48
2019-05-14T09:33:18.751Z,1028.44
2019-05-14T09:34:16.178Z,1028.46
2019-05-14T09:35:18.586Z,1028.63
2019-05-14T09:37:40.623Z,1028.41
2019-05-14T09:38:42.241Z,1028.43
2019-05-14T09:39:40.627Z,1028.61
2019-05-14T09:40:40.600Z,1028.45
2019-05-14T09:42:40.573Z,1028.55
2019-05-14T09:43:40.555Z,1028.56
2019-05-14T09:44:40.541Z,1028.56
2019-05-14T09:45:40.534Z,1028.33
2019-05-14T09:46:40.518Z,1028.32
2019-05-14T09:47:40.521Z,1028.26
2019-05-14T09:48:40.497Z,1028.26
2019-05-14T09:49:40.485Z,1028.22
2019-05-14T09:50:40.475Z,1028.26
2019-05-14T09:51:40.464Z,1028.23
2019-05-14T09:52:40.453Z,1028.17
2019-05-14T09:53:40.440Z,1028.12
2019-05-14T09:54:44.023Z,1028.19
2019-05-14T09:55:40.427Z,1028.18
2019-05-14T09:56:40.430Z,1028.22
2019-05-14T09:57:40.399Z,1028.24
2019-05-14T09:58:40.415Z,1028.26
2019-05-14T09:59:40.374Z,1028.21
2019-05-14T10:00:40.368Z,1028.18
2019-05-14T10:01:40.352Z,1028.22
2019-05-14T10:02:40.387Z,1028.25
2019-05-14T10:03:40.338Z,1028.31
2019-05-14T10:04:40.319Z,1028.19
2019-05-14T10:05:40.314Z,1028.26
2019-05-14T10:06:40.338Z,1028.34
2019-05-14T10:07:40.290Z,1028.31
2019-05-14T10:08:40.318Z,1028.24
2019-05-14T10:09:40.288Z,1028.20
2019-05-14T10:10:40.276Z,1028.16
2019-05-14T10:11:40.246Z,1028.12
2019-05-14T10:12:51.838Z,1028.13
2019-05-14T10:13:41.247Z,1028.34
2019-05-14T10:14:40.211Z,1028.44
2019-05-14T10:15:40.200Z,1028.16
2019-05-14T10:16:40.220Z,1028.14
2019-05-14T10:17:40.177Z,1028.06
2019-05-14T10:18:40.175Z,1028.06
2019-05-14T10:19:40.169Z,1028.11
2019-05-14T10:20:45.299Z,1028.12
2019-05-14T10:21:40.132Z,1028.06
2019-05-14T10:22:40.130Z,1028.05
2019-05-14T10:23:40.115Z,1028.01
2019-05-14T10:24:40.134Z,1028.07
2019-05-14T10:25:42.352Z,1028.08
2019-05-14T10:26:40.081Z,1028.10
2019-05-14T10:27:40.067Z,1028.09
2019-05-14T10:28:43.324Z,1028.10
2019-05-14T10:29:40.043Z,1028.07
2019-05-14T10:30:40.032Z,1028.10
2019-05-14T10:31:40.023Z,1028.09
2019-05-14T10:32:41.640Z,1028.08
2019-05-14T10:33:40.002Z,1028.08
2019-05-14T10:34:40.033Z,1028.11
2019-05-14T10:35:39.980Z,1028.20
2019-05-14T10:36:39.980Z,1028.26
2019-05-14T10:37:40.254Z,1028.05
2019-05-14T10:38:39.982Z,1028.27
2019-05-14T10:39:39.932Z,1028.03
2019-05-14T10:40:39.933Z,1028.03
2019-05-14T10:41:39.917Z,1027.92
2019-05-14T10:42:40.397Z,1027.95
2019-05-14T10:43:39.890Z,1027.95
2019-05-14T10:44:39.886Z,1027.96
2019-05-14T10:45:39.899Z,1027.86
2019-05-14T10:46:39.863Z,1027.87
2019-05-14T10:47:39.846Z,1027.94
2019-05-14T10:48:39.833Z,1027.94
2019-05-14T10:49:39.825Z,1027.98
2019-05-14T10:50:55.832Z,1028.02
2019-05-14T10:52:04.278Z,1027.97
2019-05-14T10:53:04.274Z,1028.03
2019-05-14T10:54:18.851Z,1028.12
2019-05-14T10:55:05.265Z,1028.00
2019-05-14T10:56:04.232Z,1028.13
2019-05-14T10:57:04.221Z,1028.04
2019-05-14T10:58:04.209Z,1027.97
